Flight Track Log - Related Links

Times and Time Zones

All times are in EDT time to prevent confusion due to time zone crossing. See the SWA3206 flight status page for this flight to view local times or setup timezone preferences in your user account.


Time Position Orientation Groundspeed Altitude Reporting Facility
EDT Latitude Longitude Course Direction KTS MPH feet Rate Location/Type
Sun 02:07:07 PM 41.7833 -87.8000 255° West 175 201 2,100  Level Chicago TRACON
Sun 02:08:50 PM 41.7589 -87.9206 255° West 223 257 4,000 764 Climbing Chicago Center
Sun 02:09:52 PM 41.7542 -88.0153 266° West 246 283 4,200 1,935 Climbing Chicago Center
Sun 02:10:54 PM 41.7614 -88.1294 275° West 269 310 8,000 3,387 Climbing Chicago Center
Sun 02:11:56 PM 41.7825 -88.2311 286° West 297 342 11,200 2,952 Climbing Chicago Center
Sun 02:12:58 PM 41.7775 -88.3408 267° West 301 346 14,100 2,081 Climbing Chicago Center
Sun 02:14:00 PM 41.7611 -88.4628 260° West 349 402 15,500 1,935 Climbing Chicago Center
Sun 02:15:02 PM 41.7325 -88.5986 254° West 382 440 18,100 2,784 Climbing Chicago Center
Sun 02:16:05 PM 41.7000 -88.7656 255° West 390 449 21,300 2,613 Climbing Chicago Center
Sun 02:17:06 PM 41.6719 -88.9119 256° West 403 464 23,500 2,000 Climbing Chicago Center
Sun 02:18:08 PM 41.6422 -89.0622 255° West 416 479 25,400 1,742 Climbing Chicago Center
Sun 02:19:10 PM 41.6128 -89.2186 256° West 431 496 27,100 1,645 Climbing Chicago Center
Sun 02:20:12 PM 41.5814 -89.3786 255° West 442 509 28,800 1,790 Climbing Chicago Center
Sun 02:21:14 PM 41.5411 -89.5739 255° West 456 525 30,800 1,984 Climbing Chicago Center
Sun 02:22:16 PM 41.5083 -89.7367 255° West 451 519 32,900 1,548 Climbing Chicago Center
Sun 02:23:18 PM 41.4764 -89.8944 255° West 443 510 34,000 532 Climbing Chicago Center
Sun 02:24:20 PM 41.4433 -90.0528 254° West 444 511 34,000 919 Level Chicago Center
Sun 02:25:22 PM 41.4117 -90.2083 255° West 439 505 35,900 1,113 Climbing Chicago Center
Sun 02:26:24 PM 41.3808 -90.3592 255° West 426 490 36,300 774 Climbing Chicago Center
Sun 02:27:26 PM 41.3422 -90.5428 254° West 431 496 37,500 816 Climbing Chicago Center
Sun 02:28:29 PM 41.3050 -90.6989 252° West 444 511 38,000 240 Climbing Chicago Center
Sun 02:29:31 PM 41.2619 -90.8453 249° West 429 494 38,000  Level Chicago Center
Sun 02:30:33 PM 41.2369 -90.9978 258° West 425 489 38,000  Level Chicago Center
Sun 02:31:35 PM 41.2106 -91.1517 257° West 426 490 38,000  Level Chicago Center
Sun 02:32:37 PM 41.1828 -91.3044 256° West 427 491 38,000  Level Chicago Center
Sun 02:33:39 PM 41.1500 -91.4892 257° West 430 495 38,000  Level Chicago Center
Sun 02:34:41 PM 41.1217 -91.6431 256° West 430 495 38,000  Level Chicago Center
Sun 02:35:43 PM 41.0925 -91.8028 256° West 436 502 38,000  Level Chicago Center
Sun 02:36:45 PM 41.0639 -91.9550 256° West 432 497 38,000  Level Chicago Center
Sun 02:37:47 PM 41.0356 -92.1083 256° West 433 498 38,000  Level Chicago Center
Sun 02:38:50 PM 41.0008 -92.2925 256° West 434 499 38,000  Level Chicago Center
Sun 02:39:51 PM 40.9722 -92.4458 256° West 434 499 38,000  Level Chicago Center
Sun 02:40:53 PM 40.9419 -92.5983 255° West 433 498 38,000  Level Chicago Center
Sun 02:41:55 PM 40.9133 -92.7492 256° West 430 495 38,000  Level Chicago Center
Sun 02:42:58 PM 40.8836 -92.9003 255° West 430 495 38,000  Level Chicago Center
Sun 02:43:21 PM 40.8725 -92.9603 256° West 429 494 38,000  Level Minneapolis Center
Sun 02:44:23 PM 40.8375 -93.1386 256° West 427 491 38,000  Level Minneapolis Center
Sun 02:45:25 PM 40.8083 -93.2833 255° West 418 481 38,000  Level Minneapolis Center
Sun 02:46:27 PM 40.7783 -93.4300 255° West 418 481 38,000  Level Minneapolis Center
Sun 02:47:29 PM 40.7494 -93.5772 256° West 419 482 38,000  Level Minneapolis Center
Sun 02:48:31 PM 40.7172 -93.7278 254° West 427 491 38,000  Level Minneapolis Center
Sun 02:49:33 PM 40.6828 -93.9042 256° West 423 487 38,000  Level Minneapolis Center
Sun 02:50:35 PM 40.6514 -94.0533 255° West 424 488 38,000  Level Minneapolis Center
Sun 02:51:37 PM 40.6186 -94.2019 254° West 426 490 38,000  Level Minneapolis Center
Sun 02:52:39 PM 40.5889 -94.3489 255° West 421 484 38,000  Level Minneapolis Center
Sun 02:53:41 PM 40.5564 -94.4978 254° West 423 487 38,000  Level Minneapolis Center
Sun 02:54:43 PM 40.5200 -94.6725 255° West 423 487 38,000  Level Minneapolis Center
Sun 02:55:45 PM 40.4903 -94.8194 255° West 419 482 38,000  Level Minneapolis Center
Sun 02:56:47 PM 40.4586 -94.9664 254° West 417 480 38,000  Level Minneapolis Center
Sun 02:57:48 PM 40.4278 -95.1161 255° West 419 482 38,000  Level Minneapolis Center
Sun 02:58:50 PM 40.3928 -95.2711 254° West 432 497 38,000  Level Minneapolis Center
Sun 02:59:52 PM 40.3528 -95.4514 254° West 429 494 38,000  Level Minneapolis Center
Sun 03:00:54 PM 40.3197 -95.6017 254° West 428 493 38,000  Level Minneapolis Center
Sun 03:01:56 PM 40.2864 -95.7525 254° West 430 495 38,000  Level Minneapolis Center
Sun 03:02:58 PM 40.2522 -95.9028 253° West 430 495 38,000  Level Minneapolis Center
Sun 03:04:00 PM 40.2192 -96.0506 254° West 425 489 38,000  Level Minneapolis Center
Sun 03:05:02 PM 40.1856 -96.1972 253° West 421 484 38,000  Level Minneapolis Center
Sun 03:06:16 PM 40.1514 -96.3461 253° West 424 488 38,000  Level Minneapolis Center
Sun 03:07:18 PM 40.1111 -96.5228 253° West 423 487 38,000  Level Minneapolis Center
Sun 03:08:20 PM 40.0708 -96.6989 253° West 423 487 38,000  Level Minneapolis Center
Sun 03:09:22 PM 40.0353 -96.8475 253° West 425 489 38,000  Level Minneapolis Center
Sun 03:10:23 PM 40.0000 -96.9956 253° West 427 491 38,000  Level Minneapolis Center
Sun 03:11:25 PM 39.9653 -97.1433 253° West 426 490 38,000  Level Minneapolis Center
Sun 03:12:27 PM 39.9306 -97.2914 253° West 426 490 38,000  Level Minneapolis Center
Sun 03:13:29 PM 39.8917 -97.4531 253° West 424 488 38,000  Level Minneapolis Center
Sun 03:14:31 PM 39.8561 -97.5994 252° West 424 488 38,000  Level Minneapolis Center
Sun 03:15:32 PM 39.8203 -97.7447 252° West 422 486 38,000  Level Minneapolis Center
Sun 03:16:34 PM 39.7850 -97.8886 252° West 420 483 38,000  Level Minneapolis Center
Sun 03:17:36 PM 39.7494 -98.0342 252° West 420 483 38,000  Level Minneapolis Center
Sun 03:18:38 PM 39.7139 -98.1794 252° West 420 483 38,000  Level Minneapolis Center
Sun 03:19:40 PM 39.6694 -98.3553 252° West 424 488 38,000  Level Minneapolis Center
Sun 03:20:41 PM 39.6328 -98.5019 252° West 426 490 38,000  Level Minneapolis Center
Sun 03:21:13 PM 39.6178 -98.5628 252° West 429 494 38,000  Level Denver Center
Sun 03:22:15 PM 39.5808 -98.7086 252° West 428 493 38,000  Level Denver Center
Sun 03:23:17 PM 39.5361 -98.8850 252° West 429 494 38,000  Level Denver Center
Sun 03:24:19 PM 39.4986 -99.0317 252° West 428 493 38,000  Level Denver Center
Sun 03:25:21 PM 39.4608 -99.1772 251° West 427 491 38,000  Level Denver Center
Sun 03:26:23 PM 39.4203 -99.3356 252° West 428 493 38,000  Level Denver Center
Sun 03:27:25 PM 39.3839 -99.4725 251° West 422 486 38,000  Level Denver Center
Sun 03:28:27 PM 39.3417 -99.6333 251° West 422 486 38,000  Level Denver Center
Sun 03:29:29 PM 39.3056 -99.7700 251° West 419 482 38,000  Level Denver Center
Sun 03:30:44 PM 39.2561 -99.9533 251° West 421 484 38,000  Level Denver Center
Sun 03:31:46 PM 39.2197 -100.0911 251° West 424 488 38,000  Level Denver Center
Sun 03:32:48 PM 39.1772 -100.2492 251° West 418 481 38,000  Level Denver Center
Sun 03:33:50 PM 39.1397 -100.3853 250° West 421 484 38,000  Level Denver Center
Sun 03:34:52 PM 39.0964 -100.5436 251° West 418 481 38,000  Level Denver Center
Sun 03:35:54 PM 39.0592 -100.6808 251° West 422 486 38,000  Level Denver Center
Sun 03:36:56 PM 39.0211 -100.8164 250° West 420 483 38,000  Level Denver Center
Sun 03:37:58 PM 38.9756 -100.9819 251° West 426 490 38,000  Level Denver Center
Sun 03:39:00 PM 38.9381 -101.1183 251° West 425 489 38,000  Level Denver Center
Sun 03:40:01 PM 38.8936 -101.2753 250° West 422 486 38,000  Level Denver Center
Sun 03:41:03 PM 38.8550 -101.4131 250° West 426 490 38,000  Level Denver Center
Sun 03:42:05 PM 38.8097 -101.5714 250° West 426 490 38,000  Level Denver Center
Sun 03:43:07 PM 38.7703 -101.7092 250° West 429 494 38,000  Level Denver Center
Sun 03:44:09 PM 38.7250 -101.8714 250° West 433 498 38,000  Level Denver Center
Sun 03:45:11 PM 38.6839 -102.0067 249° West 430 495 38,000  Level Denver Center
Sun 03:46:13 PM 38.6383 -102.1658 250° West 428 493 38,000  Level Denver Center
Sun 03:47:15 PM 38.5992 -102.3006 250° West 425 489 38,000  Level Denver Center
Sun 03:48:29 PM 38.5611 -102.4353 250° West 423 487 38,000  Level Denver Center
Sun 03:49:31 PM 38.5064 -102.6150 249° West 426 490 38,000  Level Denver Center
Sun 03:50:33 PM 38.4603 -102.7722 250° West 425 489 38,000  Level Denver Center
Sun 03:51:35 PM 38.4194 -102.9083 249° West 428 493 38,000  Level Denver Center
Sun 03:52:37 PM 38.3736 -103.0656 250° West 425 489 38,000  Level Denver Center
Sun 03:53:39 PM 38.3314 -103.2000 248° West 428 493 38,000  Level Denver Center
Sun 03:54:41 PM 38.2903 -103.3389 249° West 428 493 38,000  Level Denver Center
Sun 03:55:43 PM 38.2428 -103.4942 249° West 425 489 38,000  Level Denver Center
Sun 03:56:45 PM 38.2017 -103.6286 249° West 427 491 38,000  Level Denver Center
Sun 03:57:47 PM 38.1531 -103.7847 248° West 426 490 38,000  Level Denver Center
Sun 03:58:49 PM 38.1131 -103.9181 249° West 426 490 38,000  Level Denver Center
Sun 03:59:51 PM 38.0642 -104.0736 248° West 425 489 38,000  Level Denver Center
Sun 04:00:53 PM 38.0222 -104.2075 248° West 428 493 38,000  Level Denver Center
Sun 04:01:55 PM 37.9728 -104.3633 248° West 431 496 38,000  Level Denver Center
Sun 04:02:58 PM 37.9317 -104.4972 249° West 428 493 38,000  Level Denver Center
Sun 04:04:00 PM 37.8803 -104.6581 248° West 429 494 38,000  Level Denver Center
Sun 04:05:02 PM 37.8400 -104.7872 248° West 431 496 38,000  Level Denver Center
Sun 04:06:04 PM 37.7889 -104.9428 247° West 431 496 38,000  Level Denver Center
Sun 04:07:06 PM 37.7456 -105.0767 248° West 431 496 38,000  Level Denver Center
Sun 04:08:08 PM 37.6953 -105.2325 248° West 429 494 38,000  Level Denver Center
Sun 04:09:10 PM 37.6519 -105.3658 248° West 429 494 38,000  Level Denver Center
Sun 04:10:12 PM 37.6008 -105.5228 248° West 432 497 38,000  Level Denver Center
Sun 04:11:13 PM 37.5628 -105.6336 247° West 433 498 38,000  Level Denver Center
Sun 04:12:16 PM 37.5064 -105.8069 248° West 435 501 38,000  Level Denver Center
Sun 04:13:18 PM 37.4608 -105.9417 247° West 435 501 38,000  Level Denver Center
Sun 04:14:20 PM 37.4092 -106.0983 247° West 435 501 38,000  Level Denver Center
Sun 04:15:22 PM 37.3636 -106.2344 247° West 441 507 38,000  Level Denver Center
Sun 04:16:24 PM 37.3103 -106.3894 247° West 433 498 38,000  Level Denver Center
Sun 04:17:26 PM 37.2656 -106.5244 247° West 436 502 38,000  Level Denver Center
Sun 04:18:28 PM 37.2128 -106.6808 247° West 437 503 38,000  Level Denver Center
Sun 04:19:30 PM 37.1669 -106.8153 247° West 439 505 38,000  Level Denver Center
Sun 04:20:32 PM 37.1139 -106.9700 247° West 433 498 38,000  Level Denver Center
Sun 04:21:34 PM 37.0678 -107.1028 247° West 435 501 38,000  Level Denver Center
Sun 04:22:36 PM 37.0139 -107.2586 247° West 438 504 38,000  Level Denver Center
Sun 04:23:38 PM 36.9675 -107.3908 246° West 435 501 38,000  Level Denver Center
Sun 04:24:40 PM 36.9125 -107.5475 246° West 441 507 38,000  Level Denver Center
Sun 04:25:42 PM 36.8667 -107.6811 247° West 438 504 38,000  Level Denver Center
Sun 04:26:44 PM 36.8106 -107.8367 246° West 440 506 38,000  Level Denver Center
Sun 04:27:46 PM 36.7639 -107.9692 246° West 437 503 38,000  Level Denver Center
Sun 04:28:48 PM 36.7169 -108.1017 246° West 437 503 38,000  Level Denver Center
Sun 04:29:50 PM 36.6617 -108.2553 246° West 436 502 38,000  Level Denver Center
Sun 04:30:52 PM 36.6144 -108.3878 246° West 439 505 38,000  Level Denver Center
Sun 04:31:54 PM 36.5583 -108.5406 245° Southwest 436 502 38,000  Level Denver Center
Sun 04:32:56 PM 36.5111 -108.6722 246° West 436 502 38,000  Level Denver Center
Sun 04:33:58 PM 36.4550 -108.8242 245° Southwest 436 502 38,000  Level Denver Center
Sun 04:35:00 PM 36.4072 -108.9547 246° West 436 502 38,000  Level Denver Center
Sun 04:36:02 PM 36.3519 -109.1056 246° West 435 501 38,000  Level Denver Center
Sun 04:37:04 PM 36.3036 -109.2339 245° Southwest 433 498 38,000  Level Denver Center
Sun 04:38:06 PM 36.2469 -109.3850 245° Southwest 435 501 38,000  Level Denver Center
Sun 04:39:08 PM 36.1986 -109.5131 245° Southwest 432 497 38,000  Level Denver Center
Sun 04:40:10 PM 36.1431 -109.6642 246° West 433 498 38,000  Level Denver Center
Sun 04:41:12 PM 36.0939 -109.7942 245° Southwest 437 503 38,000  Level Denver Center
Sun 04:42:14 PM 36.0358 -109.9453 245° Southwest 437 503 38,000  Level Denver Center
Sun 04:43:16 PM 35.9875 -110.0750 245° Southwest 435 501 38,000  Level Denver Center
Sun 04:44:18 PM 35.9314 -110.2214 245° Southwest 437 503 38,000  Level Denver Center
Sun 04:45:20 PM 35.8789 -110.3575 245° Southwest 438 504 38,000  Level Denver Center
Sun 04:46:04 PM 35.8319 -110.4628 241° Southwest 437 503 38,000  Level Albuquerque Center
Sun 04:47:06 PM 35.7831 -110.5950 246° West 441 507 38,000  Level Albuquerque Center
Sun 04:48:08 PM 35.7239 -110.7475 244° Southwest 441 507 38,000  Level Albuquerque Center
Sun 04:49:10 PM 35.6728 -110.8778 244° Southwest 442 509 38,000  Level Albuquerque Center
Sun 04:50:12 PM 35.6128 -111.0303 244° Southwest 444 511 38,000  Level Albuquerque Center
Sun 04:51:14 PM 35.5619 -111.1608 244° Southwest 443 510 38,000  Level Albuquerque Center
Sun 04:52:16 PM 35.5022 -111.3131 244° Southwest 443 510 38,000  Level Albuquerque Center
Sun 04:53:18 PM 35.4478 -111.4572 245° Southwest 450 518 38,000  Level Albuquerque Center
Sun 04:54:20 PM 35.3933 -111.5939 244° Southwest 451 519 38,000  Level Albuquerque Center
Sun 04:55:22 PM 35.3386 -111.7300 244° Southwest 446 513 38,000  Level Albuquerque Center
Sun 04:56:24 PM 35.2847 -111.8650 244° Southwest 445 512 38,000  Level Albuquerque Center
Sun 04:57:26 PM 35.2297 -112.0006 244° Southwest 445 512 38,000  Level Albuquerque Center
Sun 04:58:28 PM 35.1761 -112.1342 244° Southwest 443 510 38,000  Level Albuquerque Center
Sun 04:59:30 PM 35.1119 -112.2933 244° Southwest 437 503 38,000 -435 Level Albuquerque Center
Sun 05:00:32 PM 35.0567 -112.4269 243° Southwest 439 505 37,100 -871 Descending Albuquerque Center
Sun 05:01:34 PM 35.0006 -112.5636 243° Southwest 445 512 36,200 -919 Descending Albuquerque Center
Sun 05:02:36 PM 34.9450 -112.7017 244° Southwest 451 519 35,200 -919 Descending Albuquerque Center
Sun 05:03:38 PM 34.8881 -112.8372 243° Southwest 449 517 34,300 -581 Descending Albuquerque Center
Sun 05:04:40 PM 34.8325 -112.9719 243° Southwest 447 514 34,000 -145 Descending Albuquerque Center
Sun 05:05:42 PM 34.7756 -113.1056 243° Southwest 445 512 34,000  Level Albuquerque Center
Sun 05:06:44 PM 34.7072 -113.2672 243° Southwest 447 514 34,000  Level Albuquerque Center
Sun 05:07:46 PM 34.6511 -113.4031 243° Southwest 450 518 34,000  Level Albuquerque Center
Sun 05:08:48 PM 34.5942 -113.5378 243° Southwest 450 518 34,000  Level Albuquerque Center
Sun 05:09:50 PM 34.5289 -113.6892 242° Southwest 450 518 34,000  Level Albuquerque Center
Sun 05:10:52 PM 34.4700 -113.8272 243° Southwest 456 525 34,000  Level Albuquerque Center
Sun 05:11:54 PM 34.4128 -113.9622 243° Southwest 453 521 34,000 -97 Level Albuquerque Center
Sun 05:12:56 PM 34.3539 -114.0992 243° Southwest 455 524 33,800 -581 Descending Albuquerque Center
Sun 05:13:58 PM 34.2950 -114.2344 242° Southwest 455 524 32,800 -968 Descending Albuquerque Center
Sun 05:15:00 PM 34.2378 -114.3703 243° Southwest 454 522 31,800 -1,017 Descending Albuquerque Center
Sun 05:15:56 PM 34.1831 -114.4961 242° Southwest 453 521 30,800 -915 Descending Los Angeles Center
Sun 05:16:58 PM 34.1247 -114.6294 242° Southwest 451 519 30,000 -387 Descending Los Angeles Center
Sun 05:18:00 PM 34.0561 -114.7867 242° Southwest 444 511 30,000  Level Los Angeles Center
Sun 05:19:04 PM 33.9986 -114.9186 242° Southwest 445 512 30,000 -528 Level Los Angeles Center
Sun 05:20:05 PM 33.9408 -115.0478 242° Southwest 442 509 28,900 -1,024 Descending Los Angeles Center
Sun 05:21:07 PM 33.8831 -115.1789 242° Southwest 444 511 27,900 -1,258 Descending Los Angeles Center
Sun 05:22:09 PM 33.8253 -115.3067 241° Southwest 438 504 26,300 -1,548 Descending Los Angeles Center
Sun 05:23:11 PM 33.7686 -115.4342 242° Southwest 434 499 24,700 -1,015 Descending Los Angeles Center
Sun 05:24:25 PM 33.6869 -115.6161 242° Southwest 443 510 24,000 -309 Descending Los Angeles Center
Sun 05:25:27 PM 33.6253 -115.7536 242° Southwest 465 535 24,000  Level Los Angeles Center
Sun 05:26:30 PM 33.5525 -115.8811 236° Southwest 467 537 24,000 -48 Level Los Angeles Center
Sun 05:27:32 PM 33.4808 -116.0036 235° Southwest 453 521 23,900 -242 Descending Los Angeles Center
Sun 05:28:34 PM 33.4181 -116.1125 235° Southwest 407 468 23,500 -1,355 Descending Los Angeles Center
Sun 05:29:36 PM 33.3422 -116.2378 234° Southwest 393 452 21,100 -2,032 Descending Los Angeles Center
Sun 05:30:38 PM 33.2503 -116.3008 210° Southwest 386 444 19,300 -1,645 Descending Los Angeles Center
Sun 05:31:40 PM 33.1600 -116.3539 206° Southwest 368 423 17,700 -1,597 Descending Los Angeles Center
Sun 05:32:42 PM 33.0736 -116.4047 206° Southwest 352 405 16,000 -1,645 Descending Los Angeles Center
Sun 05:33:44 PM 32.9842 -116.4561 206° Southwest 346 398 14,300 -1,258 Descending Los Angeles Center
Sun 05:34:46 PM 32.9036 -116.5028 206° Southwest 325 374 13,400 -919 Descending Los Angeles Center
Sun 05:35:48 PM 32.8192 -116.5342 197° South 290 334 12,400 -1,015 Descending Los Angeles Center
Sun 05:37:02 PM 32.7475 -116.5586 196° South 274 315 11,100 -1,226 Descending Los Angeles Center
Sun 05:38:05 PM 32.6508 -116.5933 197° South 268 308 9,600 -1,200 Descending Los Angeles Center
Sun 05:39:07 PM 32.6381 -116.6700 259° West 241 277 8,600 -1,016 Descending Los Angeles Center
Sun 05:40:09 PM 32.6397 -116.7422 272° West 227 261 7,500 -871 Descending Los Angeles Center
Sun 05:41:11 PM 32.6500 -116.8061 281° West 201 231 6,800 -823 Descending Los Angeles Center
Sun 05:42:13 PM 32.6600 -116.8642 282° West 186 214 5,800 -1,023 Descending Los Angeles Center
Sun 05:42:39 PM 32.6667 -116.9000 282° West 176 203 5,300 -1,034 Descending Southern California TRACON
Sun 05:43:40 PM 32.6833 -116.9500 292° West 171 197 4,300 -992 Descending Southern California TRACON
Sun 05:44:40 PM 32.6833 -117.0000 270° West 167 192 3,300 -1,000 Descending Southern California TRACON
Sun 05:45:40 PM 32.7000 -117.0500 292° West 166 191 2,300 -950 Descending Southern California TRACON
Sun 05:46:40 PM 32.7167 -117.1000 292° West 145 167 1,400 -808 Descending Southern California TRACON
Sun 05:47:24 PM 32.7186 -117.1325 274° West 147 169 900 -623 Descending Los Angeles Center
Sun 05:48:26 PM 32.7306 -117.1769 288° West 138 159 300 -581 Descending Los Angeles Center
Sun 05:50:00 PM 32.7333 -117.1833 281° West  Level FlightAware Approximate

Login

Don't have an account? Register now (free) for customized features, flight alerts, and more!